METAR Data
IDs: Format: Raw Decoded Include TAF

Data at: 0915 UTC 26 Jan 2020

KBCK 260855Z AUTO 30007KT 10SM OVC013 M01/M03 A2992 RMK AO2 T10081027
KBCK 260835Z AUTO 31004KT 10SM OVC013 00/M03 A2992 RMK AO2 T10051026
KBCK 260815Z AUTO 31006KT 10SM OVC013 00/M02 A2992 RMK AO2 T10041025
KBCK 260755Z AUTO 30007KT 10SM OVC013 00/M02 A2992 RMK AO2 T10021023
KBCK 260735Z AUTO 29006KT 10SM OVC013 00/M02 A2992 RMK AO2 T00001022
KBCK 260715Z AUTO 28007KT 10SM OVC013 00/M02 A2992 RMK AO2 T00001021
KBCK 260655Z AUTO 28007KT 10SM BKN013 OVC039 00/M02 A2992 RMK AO2 T00001020
KBCK 260635Z AUTO 28006KT 10SM OVC039 00/M02 A2992 RMK AO2 T00001020
KBCK 260615Z AUTO 29004KT 10SM SCT015 OVC041 00/M02 A2991 RMK AO2 T00001020
KBCK 260555Z AUTO 28005KT 10SM OVC015 00/M02 A2992 RMK AO2 T00001019 10012 20000 400170000
KBCK 260535Z AUTO 29004KT 10SM OVC013 00/M02 A2991 RMK AO2 T00001017
KBCK 260515Z AUTO 30005KT 10SM OVC013 00/M02 A2991 RMK AO2 T00011017
KBCK 260455Z AUTO 29006KT 10SM OVC013 00/M02 A2991 RMK AO2 T00011016
KBCK 260435Z AUTO 29006KT 10SM OVC013 00/M01 A2990 RMK AO2 T00011015
KBCK 260415Z AUTO 31006KT 10SM OVC013 00/M01 A2990 RMK AO2 T00021015
KBCK 260355Z AUTO 30009KT 10SM OVC013 00/M01 A2990 RMK AO2 T00021015
KBCK 260335Z AUTO 29006KT 10SM OVC013 01/M01 A2990 RMK AO2 T00051013
KBCK 260315Z AUTO 28005KT 10SM BKN013 BKN019 OVC037 01/M01 A2989 RMK AO2 T00051011
KBCK 260255Z AUTO 28004KT 10SM SCT015 BKN021 OVC035 01/M01 A2989 RMK AO2 T00061011
KBCK 260235Z AUTO 29005KT 10SM BKN015 BKN021 OVC030 01/M01 A2989 RMK AO2 T00061012
KBCK 260215Z AUTO 28006KT 10SM BKN015 OVC030 01/M01 A2989 RMK AO2 T00071012
KBCK 260155Z AUTO 29005KT 10SM SCT015 OVC041 01/M01 A2989 RMK AO2 T00071011
KBCK 260135Z AUTO 28003KT 10SM SCT015 SCT035 OVC041 01/M01 A2989 RMK AO2 T00091011
KBCK 260115Z AUTO 28004KT 10SM SCT017 BKN033 OVC041 01/M01 A2989 RMK AO2 T00101011
KBCK 260055Z AUTO 29004KT 10SM SCT015 BKN029 OVC041 01/M01 A2989 RMK AO2 T00091010
KBCK 260035Z AUTO 29005KT 10SM OVC015 01/M01 A2989 RMK AO2 T00091008
KBCK 260015Z AUTO 29007KT 10SM BKN015 OVC040 01/M01 A2989 RMK AO2 T00111010
KBCK 252355Z AUTO 30005KT 10SM BKN017 OVC040 01/M01 A2988 RMK AO2 T00121010 10017 20012
KBCK 252335Z AUTO 30005KT 10SM OVC017 01/M01 A2988 RMK AO2 T00121010
KBCK 252315Z AUTO 29003KT 10SM BKN017 OVC039 01/M01 A2987 RMK AO2 T00131010
KBCK 252255Z AUTO 31004KT 10SM BKN017 OVC039 01/M01 A2986 RMK AO2 T00141010
KBCK 252235Z AUTO 30006KT 10SM OVC017 02/M01 A2986 RMK AO2 T00151010
KBCK 252215Z AUTO 31005KT 10SM BKN017 OVC028 02/M01 A2986 RMK AO2 T00151010
KBCK 252155Z AUTO 30006KT 10SM SCT017 OVC028 02/M01 A2986 RMK AO2 T00161008
KBCK 252135Z AUTO 30007KT 10SM OVC015 02/M01 A2986 RMK AO2 T00151006
KBCK 252115Z AUTO 30008KT 10SM OVC013 02/00 A2985 RMK AO2 T00151005
KBCK 252055Z AUTO 29007KT 10SM OVC013 02/00 A2985 RMK AO2 T00151004
KBCK 252035Z AUTO 30006KT 10SM OVC011 02/00 A2985 RMK AO2 T00151002
KBCK 252015Z AUTO 29007KT 260V320 10SM OVC011 02/00 A2985 RMK AO2 T00151002
KBCK 251955Z AUTO 29007KT 10SM OVC011 02/00 A2984 RMK AO2 T00150000
KBCK 251935Z AUTO 30004KT 10SM BKN009 OVC014 02/00 A2984 RMK AO2 T00170002
KBCK 251915Z AUTO 30004KT 7SM OVC011 02/00 A2984 RMK AO2 T00150001
KBCK 251855Z AUTO 31005KT 7SM OVC011 02/00 A2985 RMK AO2 T00150002
KBCK 251835Z AUTO 30004KT 7SM OVC011 02/00 A2985 RMK AO2 T00150001
KBCK 251815Z AUTO 31006KT 10SM OVC011 02/00 A2985 RMK AO2 T00160000
KBCK 251755Z AUTO 30005KT 10SM OVC011 02/00 A2985 RMK AO2 T00170000 10017 20005
KBCK 251735Z AUTO 33007KT 10SM OVC011 02/00 A2985 RMK AO2 T00160000
KBCK 251715Z AUTO 31006KT 10SM OVC009 01/00 A2986 RMK AO2 T00140001
KBCK 251655Z AUTO 31004KT 5SM BR OVC009 01/00 A2986 RMK AO2 T00120001
KBCK 251635Z AUTO 31005KT 5SM -RA OVC009 01/00 A2986 RMK AO2 T00120000
KBCK 251615Z AUTO 32004KT 10SM OVC009 01/00 A2986 RMK AO2 T00100000
KBCK 251555Z AUTO 29004KT 4SM -SN OVC007 01/00 A2985 RMK AO2 T00080000
KBCK 251535Z AUTO 30005KT 3SM -SN OVC009 01/00 A2985 RMK AO2 T00070000
KBCK 251515Z AUTO 30004KT 3SM -SN OVC009 01/00 A2984 RMK AO2 T00070000
KBCK 251455Z AUTO 32004KT 4SM -SN OVC011 01/00 A2984 RMK AO2 T00070000
KBCK 251435Z AUTO 31004KT 7SM OVC011 01/00 A2984 RMK AO2 T00061001
KBCK 251415Z AUTO 31005KT 10SM OVC011 01/00 A2984 RMK AO2 T00061001
KBCK 251355Z AUTO 30005KT 10SM OVC011 01/00 A2984 RMK AO2 T00061001
KBCK 251335Z AUTO 32005KT 10SM OVC011 01/00 A2984 RMK AO2 T00060000
KBCK 251315Z AUTO 31004KT 10SM OVC011 01/00 A2983 RMK AO2 T00050000
KBCK 251255Z AUTO 32004KT 5SM -SN OVC011 01/00 A2983 RMK AO2 T00050000
KBCK 251235Z AUTO 31004KT 7SM -SN OVC011 01/00 A2983 RMK AO2 T00050000
KBCK 251215Z AUTO 32004KT 4SM -SN OVC009 01/00 A2983 RMK AO2 T00050000
KBCK 251155Z AUTO 30004KT 1 3/4SM -SN OVC007 00/00 A2982 RMK AO2 T00030000 10011 20003
KBCK 251135Z AUTO 30003KT 1SM -SN OVC005 00/00 A2982 RMK AO2 T00030000
KBCK 251115Z AUTO 31004KT 1SM -SN OVC007 01/00 A2982 RMK AO2 T00050000
KBCK 251055Z AUTO 31005KT 2SM -SN OVC007 01/00 A2983 RMK AO2 T00050000
KBCK 251035Z AUTO 31004KT 10SM -SN OVC007 01/00 A2982 RMK AO2 T00060000
KBCK 251015Z AUTO 30006KT 10SM OVC007 01/00 A2982 RMK AO2 T00060000
KBCK 250955Z AUTO 32004KT 10SM OVC007 01/00 A2982 RMK AO2 T00060000
KBCK 250935Z AUTO 31004KT 10SM OVC007 01/00 A2982 RMK AO2 T00060000
KBCK 250915Z AUTO 31004KT 7SM -SN OVC007 01/00 A2982 RMK AO2 T00060000
KBCK 250855Z AUTO 32004KT 7SM -SN OVC007 01/00 A2982 RMK AO2 T00060000
KBCK 250835Z AUTO 31004KT 10SM -RA OVC007 01/00 A2983 RMK AO2 T00070002
KBCK 250815Z AUTO 31003KT 10SM OVC007 01/00 A2983 RMK AO2 T00070003
KBCK 250755Z AUTO 32003KT 5SM -SN OVC007 01/00 A2983 RMK AO2 T00070003
KBCK 250735Z AUTO 33004KT 4SM -SN OVC007 01/00 A2983 RMK AO2 T00060003
KBCK 250715Z AUTO 32004KT 2 1/2SM -SN OVC007 01/00 A2984 RMK AO2 T00060003
KBCK 250655Z AUTO 31003KT 2 1/2SM -RA OVC007 01/00 A2984 RMK AO2 T00070002
KBCK 250635Z AUTO 32003KT 2 1/2SM -RA OVC009 01/00 A2984 RMK AO2 T00100002
KBCK 250615Z AUTO 31003KT 10SM OVC009 01/00 A2984 RMK AO2 T00110002
KBCK 250555Z AUTO 33003KT 10SM BKN009 OVC016 01/00 A2985 RMK AO2 T00110002 10012 20010 400151010
KBCK 250535Z AUTO 33004KT 10SM SCT009 BKN016 OVC028 01/00 A2986 RMK AO2 T00110002
KBCK 250515Z AUTO 33004KT 10SM BKN016 OVC028 01/00 A2986 RMK AO2 T00110003
KBCK 250455Z AUTO 33003KT 10SM SCT008 OVC016 01/00 A2986 RMK AO2 T00110003
KBCK 250435Z AUTO 32004KT 10SM OVC016 01/00 A2986 RMK AO2 T00100003
KBCK 250415Z AUTO 31003KT 10SM OVC016 01/00 A2986 RMK AO2 T00100004
KBCK 250355Z AUTO 32003KT 10SM BKN016 OVC024 01/01 A2986 RMK AO2 T00110005
KBCK 250335Z AUTO 34003KT 10SM OVC014 01/01 A2986 RMK AO2 T00110005
KBCK 250315Z AUTO 00000KT 10SM OVC010 01/01 A2986 RMK AO2 T00120005
KBCK 250255Z AUTO 34003KT 10SM OVC010 01/01 A2987 RMK AO2 T00120005
KBCK 250235Z AUTO 34003KT 10SM OVC010 01/01 A2987 RMK AO2 T00110005
KBCK 250215Z AUTO 34003KT 10SM OVC010 01/01 A2987 RMK AO2 T00110005
KBCK 250155Z AUTO 34004KT 10SM OVC010 01/01 A2988 RMK AO2 T00110005
KBCK 250135Z AUTO 35003KT 10SM OVC010 01/01 A2988 RMK AO2 T00110005
KBCK 250115Z AUTO 35004KT 10SM OVC010 01/01 A2988 RMK AO2 T00110005
KBCK 250055Z AUTO 34003KT 10SM OVC010 01/01 A2989 RMK AO2 T00110006
KBCK 250035Z AUTO 35003KT 10SM OVC010 01/01 A2989 RMK AO2 T00100005
KBCK 250015Z AUTO 35004KT 7SM OVC008 01/01 A2988 RMK AO2 T00100005
KBCK 242355Z AUTO 35003KT 7SM OVC008 01/01 A2988 RMK AO2 T00110006 10015 20010
KBCK 242335Z AUTO 35003KT 5SM BR OVC008 01/01 A2989 RMK AO2 T00110006
KBCK 242315Z AUTO 34003KT 5SM BR BKN008 OVC015 01/01 A2988 RMK AO2 T00100006
KBCK 242255Z AUTO 36004KT 4SM -DZ BKN008 OVC016 01/01 A2989 RMK AO2 T00110006
KBCK 242235Z AUTO 36004KT 4SM -DZ BKN010 OVC014 01/01 A2989 RMK AO2 T00120006
KBCK 242215Z AUTO 36004KT 5SM BR OVC013 01/01 A2989 RMK AO2 T00120005
KBCK 242155Z AUTO 35005KT 7SM BKN008 OVC015 01/01 A2989 RMK AO2 T00130006
KBCK 242135Z AUTO 01004KT 7SM OVC006 01/01 A2989 RMK AO2 T00130006